sensor_id;sensor_type;location;lat;lon;timestamp;P1;durP1;ratioP1;P2;durP2;ratioP2
70675;SDS011;59069;52.242;20.900;2022-12-16T00:01:06;48.97;;;17.52;;
70675;SDS011;59069;52.242;20.900;2022-12-16T00:03:36;47.47;;;17.17;;
70675;SDS011;59069;52.242;20.900;2022-12-16T00:06:03;42.73;;;17.43;;
70675;SDS011;59069;52.242;20.900;2022-12-16T00:08:33;49.30;;;16.58;;
70675;SDS011;59069;52.242;20.900;2022-12-16T00:11:01;46.08;;;16.95;;
70675;SDS011;59069;52.242;20.900;2022-12-16T00:13:28;56.13;;;18.13;;
70675;SDS011;59069;52.242;20.900;2022-12-16T00:15:54;43.83;;;15.90;;
70675;SDS011;59069;52.242;20.900;2022-12-16T00:18:20;41.33;;;15.40;;
70675;SDS011;59069;52.242;20.900;2022-12-16T00:20:47;47.72;;;16.20;;
70675;SDS011;59069;52.242;20.900;2022-12-16T00:23:14;48.65;;;16.92;;
70675;SDS011;59069;52.242;20.900;2022-12-16T00:25:42;44.03;;;16.67;;
70675;SDS011;59069;52.242;20.900;2022-12-16T00:28:10;44.13;;;16.38;;
70675;SDS011;59069;52.242;20.900;2022-12-16T00:30:36;43.60;;;15.43;;
70675;SDS011;59069;52.242;20.900;2022-12-16T00:33:02;43.17;;;15.40;;
70675;SDS011;59069;52.242;20.900;2022-12-16T00:35:28;45.80;;;16.67;;
70675;SDS011;59069;52.242;20.900;2022-12-16T00:37:54;47.85;;;16.80;;
70675;SDS011;59069;52.242;20.900;2022-12-16T00:40:20;41.63;;;15.52;;
70675;SDS011;59069;52.242;20.900;2022-12-16T00:42:46;46.47;;;15.80;;
70675;SDS011;59069;52.242;20.900;2022-12-16T00:45:11;45.07;;;15.37;;
70675;SDS011;59069;52.242;20.900;2022-12-16T00:47:37;44.40;;;15.38;;
70675;SDS011;59069;52.242;20.900;2022-12-16T00:50:03;45.57;;;16.47;;
70675;SDS011;59069;52.242;20.900;2022-12-16T00:52:29;39.90;;;14.77;;
70675;SDS011;59069;52.242;20.900;2022-12-16T00:54:54;44.43;;;14.10;;
70675;SDS011;59069;52.242;20.900;2022-12-16T00:57:20;44.22;;;15.85;;
70675;SDS011;59069;52.242;20.900;2022-12-16T00:59:46;48.10;;;16.27;;
70675;SDS011;59069;52.242;20.900;2022-12-16T01:02:11;40.20;;;14.70;;
70675;SDS011;59069;52.242;20.900;2022-12-16T01:04:37;44.60;;;15.63;;
70675;SDS011;59069;52.242;20.900;2022-12-16T01:07:02;49.83;;;15.40;;
70675;SDS011;59069;52.242;20.900;2022-12-16T01:09:28;45.10;;;15.70;;
70675;SDS011;59069;52.242;20.900;2022-12-16T01:11:53;40.57;;;14.70;;
70675;SDS011;59069;52.242;20.900;2022-12-16T01:14:19;43.67;;;14.17;;
70675;SDS011;59069;52.242;20.900;2022-12-16T01:16:44;44.22;;;14.63;;
70675;SDS011;59069;52.242;20.900;2022-12-16T01:19:10;43.37;;;15.00;;
70675;SDS011;59069;52.242;20.900;2022-12-16T01:21:35;45.50;;;14.37;;
70675;SDS011;59069;52.242;20.900;2022-12-16T01:24:02;43.97;;;13.80;;
70675;SDS011;59069;52.242;20.900;2022-12-16T01:26:28;45.40;;;15.13;;
70675;SDS011;59069;52.242;20.900;2022-12-16T01:28:56;47.80;;;15.88;;
70675;SDS011;59069;52.242;20.900;2022-12-16T01:31:22;45.73;;;16.17;;
70675;SDS011;59069;52.242;20.900;2022-12-16T01:33:48;46.58;;;16.08;;
70675;SDS011;59069;52.242;20.900;2022-12-16T01:36:15;41.45;;;14.93;;
70675;SDS011;59069;52.242;20.900;2022-12-16T01:38:41;43.40;;;15.40;;
70675;SDS011;59069;52.242;20.900;2022-12-16T01:41:08;49.08;;;15.48;;
70675;SDS011;59069;52.242;20.900;2022-12-16T01:43:36;43.77;;;15.47;;
70675;SDS011;59069;52.242;20.900;2022-12-16T01:46:07;47.88;;;15.68;;
70675;SDS011;59069;52.242;20.900;2022-12-16T01:48:42;43.35;;;15.23;;
70675;SDS011;59069;52.242;20.900;2022-12-16T01:53:48;44.13;;;16.95;;
70675;SDS011;59069;52.242;20.900;2022-12-16T01:56:17;40.60;;;15.30;;
70675;SDS011;59069;52.242;20.900;2022-12-16T01:58:47;40.33;;;14.35;;
70675;SDS011;59069;52.242;20.900;2022-12-16T02:01:13;46.70;;;14.68;;
70675;SDS011;59069;52.242;20.900;2022-12-16T02:03:39;40.90;;;15.32;;
70675;SDS011;59069;52.242;20.900;2022-12-16T02:06:06;45.95;;;15.52;;
70675;SDS011;59069;52.242;20.900;2022-12-16T02:08:32;40.50;;;15.73;;
70675;SDS011;59069;52.242;20.900;2022-12-16T02:11:06;45.65;;;15.82;;
70675;SDS011;59069;52.242;20.900;2022-12-16T02:25:46;46.55;;;16.42;;
70675;SDS011;59069;52.242;20.900;2022-12-16T02:31:31;50.13;;;15.70;;
70675;SDS011;59069;52.242;20.900;2022-12-16T02:34:20;50.05;;;16.65;;
70675;SDS011;59069;52.242;20.900;2022-12-16T02:39:39;47.70;;;15.52;;
70675;SDS011;59069;52.242;20.900;2022-12-16T02:42:18;43.55;;;14.90;;
70675;SDS011;59069;52.242;20.900;2022-12-16T02:44:55;50.00;;;16.30;;
70675;SDS011;59069;52.242;20.900;2022-12-16T02:47:32;46.90;;;15.27;;
70675;SDS011;59069;52.242;20.900;2022-12-16T02:49:58;49.58;;;15.32;;
70675;SDS011;59069;52.242;20.900;2022-12-16T02:52:25;46.43;;;15.43;;
70675;SDS011;59069;52.242;20.900;2022-12-16T02:54:57;47.65;;;15.75;;
70675;SDS011;59069;52.242;20.900;2022-12-16T03:03:05;49.80;;;15.65;;
70675;SDS011;59069;52.242;20.900;2022-12-16T03:05:44;44.28;;;14.93;;
70675;SDS011;59069;52.242;20.900;2022-12-16T03:08:23;45.88;;;15.25;;
70675;SDS011;59069;52.242;20.900;2022-12-16T03:11:02;47.33;;;15.47;;
70675;SDS011;59069;52.242;20.900;2022-12-16T03:13:31;45.20;;;14.50;;
70675;SDS011;59069;52.242;20.900;2022-12-16T03:16:01;44.50;;;14.80;;
70675;SDS011;59069;52.242;20.900;2022-12-16T03:18:30;44.85;;;15.10;;
70675;SDS011;59069;52.242;20.900;2022-12-16T03:21:00;46.25;;;15.73;;
70675;SDS011;59069;52.242;20.900;2022-12-16T03:23:52;44.10;;;14.90;;
70675;SDS011;59069;52.242;20.900;2022-12-16T03:26:24;42.20;;;14.73;;
70675;SDS011;59069;52.242;20.900;2022-12-16T03:29:01;46.63;;;14.10;;
70675;SDS011;59069;52.242;20.900;2022-12-16T03:32:50;42.33;;;14.30;;
70675;SDS011;59069;52.242;20.900;2022-12-16T03:34:55;49.50;;;14.70;;
70675;SDS011;59069;52.242;20.900;2022-12-16T03:37:26;48.83;;;14.60;;
70675;SDS011;59069;52.242;20.900;2022-12-16T03:39:56;42.22;;;14.48;;
70675;SDS011;59069;52.242;20.900;2022-12-16T03:42:24;45.15;;;15.35;;
70675;SDS011;59069;52.242;20.900;2022-12-16T03:44:50;43.25;;;14.82;;
70675;SDS011;59069;52.242;20.900;2022-12-16T03:47:16;44.27;;;15.80;;
70675;SDS011;59069;52.242;20.900;2022-12-16T03:49:41;48.10;;;16.13;;
70675;SDS011;59069;52.242;20.900;2022-12-16T03:52:07;45.47;;;15.47;;
70675;SDS011;59069;52.242;20.900;2022-12-16T03:54:32;48.23;;;15.90;;
70675;SDS011;59069;52.242;20.900;2022-12-16T03:56:58;46.85;;;15.70;;
70675;SDS011;59069;52.242;20.900;2022-12-16T03:59:24;44.93;;;15.83;;
70675;SDS011;59069;52.242;20.900;2022-12-16T04:01:49;47.35;;;15.88;;
70675;SDS011;59069;52.242;20.900;2022-12-16T04:04:16;45.83;;;14.80;;
70675;SDS011;59069;52.242;20.900;2022-12-16T04:06:42;41.08;;;13.63;;
70675;SDS011;59069;52.242;20.900;2022-12-16T04:09:07;48.73;;;14.87;;
70675;SDS011;59069;52.242;20.900;2022-12-16T04:11:34;42.22;;;14.80;;
70675;SDS011;59069;52.242;20.900;2022-12-16T04:14:18;40.15;;;14.90;;
70675;SDS011;59069;52.242;20.900;2022-12-16T04:17:02;47.17;;;16.00;;
70675;SDS011;59069;52.242;20.900;2022-12-16T04:19:47;44.50;;;14.25;;
70675;SDS011;59069;52.242;20.900;2022-12-16T04:22:32;38.40;;;13.00;;
70675;SDS011;59069;52.242;20.900;2022-12-16T04:25:22;47.35;;;14.80;;
70675;SDS011;59069;52.242;20.900;2022-12-16T04:27:52;44.65;;;13.75;;
70675;SDS011;59069;52.242;20.900;2022-12-16T04:30:18;42.63;;;14.57;;
70675;SDS011;59069;52.242;20.900;2022-12-16T04:32:49;43.17;;;14.98;;
70675;SDS011;59069;52.242;20.900;2022-12-16T04:35:36;45.35;;;14.68;;
70675;SDS011;59069;52.242;20.900;2022-12-16T04:38:20;48.13;;;15.82;;
70675;SDS011;59069;52.242;20.900;2022-12-16T04:41:04;43.87;;;15.20;;
70675;SDS011;59069;52.242;20.900;2022-12-16T04:43:49;49.13;;;14.60;;
70675;SDS011;59069;52.242;20.900;2022-12-16T04:46:32;44.65;;;15.68;;
70675;SDS011;59069;52.242;20.900;2022-12-16T04:49:16;45.40;;;15.57;;
70675;SDS011;59069;52.242;20.900;2022-12-16T04:52:00;46.67;;;15.38;;
70675;SDS011;59069;52.242;20.900;2022-12-16T04:54:44;45.83;;;15.57;;
70675;SDS011;59069;52.242;20.900;2022-12-16T04:57:28;52.83;;;15.75;;
70675;SDS011;59069;52.242;20.900;2022-12-16T05:00:12;44.92;;;14.60;;
70675;SDS011;59069;52.242;20.900;2022-12-16T05:02:56;48.38;;;15.63;;
70675;SDS011;59069;52.242;20.900;2022-12-16T05:05:41;45.28;;;15.00;;
70675;SDS011;59069;52.242;20.900;2022-12-16T05:08:25;51.60;;;15.97;;
70675;SDS011;59069;52.242;20.900;2022-12-16T05:11:09;46.72;;;16.85;;
70675;SDS011;59069;52.242;20.900;2022-12-16T05:13:52;47.97;;;15.25;;
70675;SDS011;59069;52.242;20.900;2022-12-16T05:16:36;45.03;;;15.38;;
70675;SDS011;59069;52.242;20.900;2022-12-16T05:19:20;46.78;;;15.75;;
70675;SDS011;59069;52.242;20.900;2022-12-16T05:22:04;45.17;;;14.10;;
70675;SDS011;59069;52.242;20.900;2022-12-16T05:24:48;52.38;;;15.27;;
70675;SDS011;59069;52.242;20.900;2022-12-16T05:27:32;48.67;;;15.68;;
70675;SDS011;59069;52.242;20.900;2022-12-16T05:30:16;44.17;;;14.80;;
70675;SDS011;59069;52.242;20.900;2022-12-16T05:33:00;47.45;;;15.13;;
70675;SDS011;59069;52.242;20.900;2022-12-16T05:35:44;46.37;;;15.20;;
70675;SDS011;59069;52.242;20.900;2022-12-16T05:38:28;44.78;;;15.10;;
70675;SDS011;59069;52.242;20.900;2022-12-16T05:41:12;43.72;;;15.43;;
70675;SDS011;59069;52.242;20.900;2022-12-16T05:43:56;50.03;;;16.52;;
70675;SDS011;59069;52.242;20.900;2022-12-16T05:46:40;45.30;;;15.80;;
70675;SDS011;59069;52.242;20.900;2022-12-16T05:49:38;48.23;;;15.43;;
70675;SDS011;59069;52.242;20.900;2022-12-16T05:52:22;53.15;;;15.98;;
70675;SDS011;59069;52.242;20.900;2022-12-16T05:55:06;54.08;;;16.45;;
70675;SDS011;59069;52.242;20.900;2022-12-16T05:57:50;43.72;;;15.02;;
70675;SDS011;59069;52.242;20.900;2022-12-16T06:00:35;42.15;;;16.25;;
70675;SDS011;59069;52.242;20.900;2022-12-16T06:03:19;43.93;;;15.30;;
70675;SDS011;59069;52.242;20.900;2022-12-16T06:06:03;50.10;;;16.48;;
70675;SDS011;59069;52.242;20.900;2022-12-16T06:08:48;51.50;;;16.80;;
70675;SDS011;59069;52.242;20.900;2022-12-16T06:11:32;45.90;;;16.15;;
70675;SDS011;59069;52.242;20.900;2022-12-16T06:14:16;51.42;;;17.50;;
70675;SDS011;59069;52.242;20.900;2022-12-16T06:17:00;47.43;;;16.27;;
70675;SDS011;59069;52.242;20.900;2022-12-16T06:19:44;54.15;;;17.13;;
70675;SDS011;59069;52.242;20.900;2022-12-16T06:22:27;48.53;;;17.13;;
70675;SDS011;59069;52.242;20.900;2022-12-16T06:25:11;55.58;;;17.15;;
70675;SDS011;59069;52.242;20.900;2022-12-16T06:27:55;53.53;;;17.35;;
70675;SDS011;59069;52.242;20.900;2022-12-16T06:30:39;54.60;;;17.43;;
70675;SDS011;59069;52.242;20.900;2022-12-16T06:33:23;49.75;;;16.85;;
70675;SDS011;59069;52.242;20.900;2022-12-16T06:36:07;49.97;;;16.10;;
70675;SDS011;59069;52.242;20.900;2022-12-16T06:38:51;50.45;;;16.42;;
70675;SDS011;59069;52.242;20.900;2022-12-16T06:41:35;49.22;;;17.80;;
70675;SDS011;59069;52.242;20.900;2022-12-16T06:44:19;58.83;;;18.10;;
70675;SDS011;59069;52.242;20.900;2022-12-16T06:47:03;59.97;;;18.05;;
70675;SDS011;59069;52.242;20.900;2022-12-16T06:49:47;59.60;;;19.17;;
70675;SDS011;59069;52.242;20.900;2022-12-16T06:52:31;60.35;;;23.75;;
70675;SDS011;59069;52.242;20.900;2022-12-16T06:55:15;68.93;;;21.92;;
70675;SDS011;59069;52.242;20.900;2022-12-16T06:57:59;58.23;;;18.97;;
70675;SDS011;59069;52.242;20.900;2022-12-16T07:00:43;59.03;;;18.80;;
70675;SDS011;59069;52.242;20.900;2022-12-16T07:03:28;62.92;;;20.50;;
70675;SDS011;59069;52.242;20.900;2022-12-16T07:06:12;57.70;;;17.90;;
70675;SDS011;59069;52.242;20.900;2022-12-16T07:08:56;57.55;;;17.95;;
70675;SDS011;59069;52.242;20.900;2022-12-16T07:11:40;55.93;;;18.93;;
70675;SDS011;59069;52.242;20.900;2022-12-16T07:14:24;51.88;;;17.80;;
70675;SDS011;59069;52.242;20.900;2022-12-16T07:17:08;55.75;;;18.55;;
70675;SDS011;59069;52.242;20.900;2022-12-16T07:19:52;54.05;;;17.98;;
70675;SDS011;59069;52.242;20.900;2022-12-16T07:22:35;63.13;;;18.52;;
70675;SDS011;59069;52.242;20.900;2022-12-16T07:25:24;52.93;;;17.30;;
70675;SDS011;59069;52.242;20.900;2022-12-16T07:28:08;56.28;;;18.00;;
70675;SDS011;59069;52.242;20.900;2022-12-16T07:30:52;57.85;;;18.42;;
70675;SDS011;59069;52.242;20.900;2022-12-16T07:33:36;61.83;;;18.65;;
70675;SDS011;59069;52.242;20.900;2022-12-16T07:36:20;56.65;;;18.00;;
70675;SDS011;59069;52.242;20.900;2022-12-16T07:39:04;57.87;;;18.17;;
70675;SDS011;59069;52.242;20.900;2022-12-16T07:41:47;56.00;;;18.20;;
70675;SDS011;59069;52.242;20.900;2022-12-16T07:44:31;60.38;;;17.23;;
70675;SDS011;59069;52.242;20.900;2022-12-16T07:47:15;60.20;;;18.58;;
70675;SDS011;59069;52.242;20.900;2022-12-16T07:50:00;56.40;;;17.88;;
70675;SDS011;59069;52.242;20.900;2022-12-16T07:52:44;56.77;;;17.13;;
70675;SDS011;59069;52.242;20.900;2022-12-16T07:55:28;58.47;;;17.98;;
70675;SDS011;59069;52.242;20.900;2022-12-16T07:58:12;49.50;;;17.55;;
70675;SDS011;59069;52.242;20.900;2022-12-16T08:00:56;50.53;;;17.73;;
70675;SDS011;59069;52.242;20.900;2022-12-16T08:03:39;58.42;;;17.50;;
70675;SDS011;59069;52.242;20.900;2022-12-16T08:06:23;50.50;;;16.67;;
70675;SDS011;59069;52.242;20.900;2022-12-16T08:09:07;52.08;;;16.50;;
70675;SDS011;59069;52.242;20.900;2022-12-16T08:11:51;51.03;;;18.38;;
70675;SDS011;59069;52.242;20.900;2022-12-16T08:14:35;60.05;;;18.33;;
70675;SDS011;59069;52.242;20.900;2022-12-16T08:17:19;52.85;;;17.65;;
70675;SDS011;59069;52.242;20.900;2022-12-16T08:20:03;54.63;;;16.53;;
70675;SDS011;59069;52.242;20.900;2022-12-16T08:22:48;54.85;;;16.77;;
70675;SDS011;59069;52.242;20.900;2022-12-16T08:25:32;52.13;;;18.42;;
70675;SDS011;59069;52.242;20.900;2022-12-16T08:28:16;61.97;;;18.98;;
70675;SDS011;59069;52.242;20.900;2022-12-16T08:31:00;53.00;;;16.52;;
70675;SDS011;59069;52.242;20.900;2022-12-16T08:33:44;61.20;;;18.00;;
70675;SDS011;59069;52.242;20.900;2022-12-16T08:36:27;52.47;;;17.30;;
70675;SDS011;59069;52.242;20.900;2022-12-16T08:39:12;52.08;;;17.48;;
70675;SDS011;59069;52.242;20.900;2022-12-16T08:41:55;55.90;;;16.73;;
70675;SDS011;59069;52.242;20.900;2022-12-16T08:44:40;58.25;;;17.40;;
70675;SDS011;59069;52.242;20.900;2022-12-16T08:47:23;58.53;;;17.10;;
70675;SDS011;59069;52.242;20.900;2022-12-16T08:50:07;55.45;;;17.33;;
70675;SDS011;59069;52.242;20.900;2022-12-16T08:52:52;50.45;;;16.42;;
70675;SDS011;59069;52.242;20.900;2022-12-16T08:55:36;56.65;;;16.85;;
70675;SDS011;59069;52.242;20.900;2022-12-16T08:58:19;53.13;;;16.88;;
70675;SDS011;59069;52.242;20.900;2022-12-16T09:01:03;50.17;;;16.43;;
70675;SDS011;59069;52.242;20.900;2022-12-16T09:03:47;56.28;;;16.65;;
70675;SDS011;59069;52.242;20.900;2022-12-16T09:06:31;60.28;;;18.35;;
70675;SDS011;59069;52.242;20.900;2022-12-16T09:09:15;47.25;;;15.40;;
70675;SDS011;59069;52.242;20.900;2022-12-16T09:11:59;55.20;;;17.60;;
70675;SDS011;59069;52.242;20.900;2022-12-16T09:14:43;52.30;;;17.23;;
70675;SDS011;59069;52.242;20.900;2022-12-16T09:17:27;50.47;;;16.65;;
70675;SDS011;59069;52.242;20.900;2022-12-16T09:20:11;52.92;;;16.88;;
70675;SDS011;59069;52.242;20.900;2022-12-16T09:22:55;61.75;;;18.23;;
70675;SDS011;59069;52.242;20.900;2022-12-16T09:25:39;48.03;;;18.33;;
70675;SDS011;59069;52.242;20.900;2022-12-16T09:28:23;67.43;;;19.30;;
70675;SDS011;59069;52.242;20.900;2022-12-16T09:31:07;52.90;;;17.20;;
70675;SDS011;59069;52.242;20.900;2022-12-16T09:33:51;61.83;;;18.17;;
70675;SDS011;59069;52.242;20.900;2022-12-16T09:36:35;47.80;;;16.05;;
70675;SDS011;59069;52.242;20.900;2022-12-16T09:39:19;53.83;;;18.67;;
70675;SDS011;59069;52.242;20.900;2022-12-16T09:48:59;53.67;;;17.08;;
70675;SDS011;59069;52.242;20.900;2022-12-16T09:51:33;50.05;;;16.50;;
70675;SDS011;59069;52.242;20.900;2022-12-16T09:54:19;53.58;;;16.08;;
70675;SDS011;59069;52.242;20.900;2022-12-16T09:57:09;49.97;;;16.77;;
70675;SDS011;59069;52.242;20.900;2022-12-16T09:59:54;51.42;;;16.17;;
70675;SDS011;59069;52.242;20.900;2022-12-16T10:02:43;52.03;;;16.98;;
70675;SDS011;59069;52.242;20.900;2022-12-16T10:05:32;49.78;;;16.73;;
70675;SDS011;59069;52.242;20.900;2022-12-16T10:08:40;53.97;;;17.95;;
70675;SDS011;59069;52.242;20.900;2022-12-16T10:14:58;53.47;;;16.55;;
70675;SDS011;59069;52.242;20.900;2022-12-16T10:17:46;46.17;;;16.27;;
70675;SDS011;59069;52.242;20.900;2022-12-16T10:23:34;44.95;;;16.15;;
70675;SDS011;59069;52.242;20.900;2022-12-16T10:29:24;48.65;;;17.10;;
70675;SDS011;59069;52.242;20.900;2022-12-16T10:32:13;46.22;;;15.32;;
70675;SDS011;59069;52.242;20.900;2022-12-16T10:38:36;46.92;;;17.13;;
70675;SDS011;59069;52.242;20.900;2022-12-16T10:41:25;49.00;;;16.63;;
70675;SDS011;59069;52.242;20.900;2022-12-16T10:44:34;47.63;;;16.85;;
70675;SDS011;59069;52.242;20.900;2022-12-16T10:47:18;52.08;;;18.17;;
70675;SDS011;59069;52.242;20.900;2022-12-16T10:50:02;48.53;;;15.88;;
70675;SDS011;59069;52.242;20.900;2022-12-16T10:53:29;51.10;;;17.23;;
70675;SDS011;59069;52.242;20.900;2022-12-16T10:59:33;46.85;;;15.30;;
70675;SDS011;59069;52.242;20.900;2022-12-16T11:02:20;49.15;;;16.20;;
70675;SDS011;59069;52.242;20.900;2022-12-16T11:11:13;55.10;;;17.37;;
70675;SDS011;59069;52.242;20.900;2022-12-16T11:14:13;53.17;;;18.00;;
70675;SDS011;59069;52.242;20.900;2022-12-16T11:17:18;55.05;;;16.85;;
70675;SDS011;59069;52.242;20.900;2022-12-16T11:20:20;47.45;;;16.85;;
70675;SDS011;59069;52.242;20.900;2022-12-16T11:29:02;45.08;;;15.98;;
70675;SDS011;59069;52.242;20.900;2022-12-16T11:31:47;48.47;;;16.67;;
70675;SDS011;59069;52.242;20.900;2022-12-16T11:34:37;51.15;;;17.55;;
70675;SDS011;59069;52.242;20.900;2022-12-16T11:37:21;51.05;;;16.85;;
70675;SDS011;59069;52.242;20.900;2022-12-16T11:40:11;45.73;;;16.37;;
70675;SDS011;59069;52.242;20.900;2022-12-16T11:42:59;48.35;;;15.05;;
70675;SDS011;59069;52.242;20.900;2022-12-16T11:45:45;44.33;;;16.02;;
70675;SDS011;59069;52.242;20.900;2022-12-16T11:51:32;51.22;;;16.55;;
70675;SDS011;59069;52.242;20.900;2022-12-16T11:57:24;51.33;;;16.25;;
70675;SDS011;59069;52.242;20.900;2022-12-16T12:00:17;40.05;;;15.00;;
70675;SDS011;59069;52.242;20.900;2022-12-16T12:03:11;45.53;;;15.75;;
70675;SDS011;59069;52.242;20.900;2022-12-16T12:08:57;46.30;;;16.60;;
70675;SDS011;59069;52.242;20.900;2022-12-16T12:12:08;46.15;;;15.55;;
70675;SDS011;59069;52.242;20.900;2022-12-16T12:26:16;48.70;;;14.70;;
70675;SDS011;59069;52.242;20.900;2022-12-16T12:29:57;45.58;;;16.52;;
70675;SDS011;59069;52.242;20.900;2022-12-16T12:32:51;46.10;;;15.13;;
70675;SDS011;59069;52.242;20.900;2022-12-16T12:39:17;50.25;;;16.02;;
70675;SDS011;59069;52.242;20.900;2022-12-16T12:45:37;43.83;;;15.32;;
70675;SDS011;59069;52.242;20.900;2022-12-16T12:52:17;44.40;;;14.90;;
70675;SDS011;59069;52.242;20.900;2022-12-16T12:58:04;45.00;;;14.40;;
70675;SDS011;59069;52.242;20.900;2022-12-16T13:00:50;49.20;;;16.75;;
70675;SDS011;59069;52.242;20.900;2022-12-16T13:06:28;52.58;;;16.95;;
70675;SDS011;59069;52.242;20.900;2022-12-16T13:12:29;49.87;;;17.27;;
70675;SDS011;59069;52.242;20.900;2022-12-16T13:24:19;49.90;;;15.75;;
70675;SDS011;59069;52.242;20.900;2022-12-16T13:27:11;40.80;;;15.80;;
70675;SDS011;59069;52.242;20.900;2022-12-16T13:30:01;49.67;;;16.20;;
70675;SDS011;59069;52.242;20.900;2022-12-16T13:32:55;53.55;;;16.75;;
70675;SDS011;59069;52.242;20.900;2022-12-16T13:35:55;50.25;;;17.23;;
70675;SDS011;59069;52.242;20.900;2022-12-16T13:38:47;49.88;;;16.67;;
70675;SDS011;59069;52.242;20.900;2022-12-16T13:50:35;48.70;;;16.90;;
70675;SDS011;59069;52.242;20.900;2022-12-16T13:53:22;54.30;;;17.73;;
70675;SDS011;59069;52.242;20.900;2022-12-16T13:56:10;51.03;;;16.07;;
70675;SDS011;59069;52.242;20.900;2022-12-16T13:59:04;45.40;;;17.00;;
70675;SDS011;59069;52.242;20.900;2022-12-16T14:01:56;46.25;;;16.95;;
70675;SDS011;59069;52.242;20.900;2022-12-16T14:04:45;51.50;;;16.13;;
70675;SDS011;59069;52.242;20.900;2022-12-16T14:07:36;46.08;;;17.15;;
70675;SDS011;59069;52.242;20.900;2022-12-16T14:10:26;50.17;;;16.20;;
70675;SDS011;59069;52.242;20.900;2022-12-16T14:22:02;48.60;;;15.10;;
70675;SDS011;59069;52.242;20.900;2022-12-16T14:25:11;55.77;;;17.43;;
70675;SDS011;59069;52.242;20.900;2022-12-16T14:27:57;46.83;;;15.23;;
70675;SDS011;59069;52.242;20.900;2022-12-16T14:30:43;48.38;;;15.45;;
70675;SDS011;59069;52.242;20.900;2022-12-16T14:33:28;46.13;;;14.43;;
70675;SDS011;59069;52.242;20.900;2022-12-16T14:36:22;56.60;;;17.30;;
70675;SDS011;59069;52.242;20.900;2022-12-16T14:39:09;48.20;;;14.97;;
70675;SDS011;59069;52.242;20.900;2022-12-16T14:41:54;51.20;;;15.75;;
70675;SDS011;59069;52.242;20.900;2022-12-16T14:44:55;44.05;;;14.45;;
70675;SDS011;59069;52.242;20.900;2022-12-16T14:47:38;45.90;;;15.82;;
70675;SDS011;59069;52.242;20.900;2022-12-16T14:50:26;48.72;;;15.45;;
70675;SDS011;59069;52.242;20.900;2022-12-16T14:53:12;48.73;;;15.70;;
70675;SDS011;59069;52.242;20.900;2022-12-16T14:56:12;49.38;;;15.30;;
70675;SDS011;59069;52.242;20.900;2022-12-16T15:02:10;48.22;;;15.68;;
70675;SDS011;59069;52.242;20.900;2022-12-16T15:05:04;47.35;;;14.35;;
70675;SDS011;59069;52.242;20.900;2022-12-16T15:07:49;42.90;;;14.90;;
70675;SDS011;59069;52.242;20.900;2022-12-16T15:10:33;40.20;;;15.27;;
70675;SDS011;59069;52.242;20.900;2022-12-16T15:13:17;47.15;;;15.98;;
70675;SDS011;59069;52.242;20.900;2022-12-16T15:16:02;42.97;;;14.13;;
70675;SDS011;59069;52.242;20.900;2022-12-16T15:18:50;44.17;;;14.77;;
70675;SDS011;59069;52.242;20.900;2022-12-16T15:21:41;38.97;;;14.77;;
70675;SDS011;59069;52.242;20.900;2022-12-16T15:24:26;45.55;;;13.98;;
70675;SDS011;59069;52.242;20.900;2022-12-16T15:33:16;47.40;;;15.85;;
70675;SDS011;59069;52.242;20.900;2022-12-16T15:36:02;46.97;;;13.87;;
70675;SDS011;59069;52.242;20.900;2022-12-16T15:38:48;47.58;;;15.45;;
70675;SDS011;59069;52.242;20.900;2022-12-16T15:41:32;44.88;;;14.73;;
70675;SDS011;59069;52.242;20.900;2022-12-16T15:50:12;46.70;;;14.13;;
70675;SDS011;59069;52.242;20.900;2022-12-16T15:56:55;42.92;;;14.15;;
70675;SDS011;59069;52.242;20.900;2022-12-16T15:59:31;44.90;;;14.98;;
70675;SDS011;59069;52.242;20.900;2022-12-16T16:02:21;44.08;;;14.07;;
70675;SDS011;59069;52.242;20.900;2022-12-16T16:05:11;42.83;;;12.70;;
70675;SDS011;59069;52.242;20.900;2022-12-16T16:08:01;44.30;;;16.50;;
70675;SDS011;59069;52.242;20.900;2022-12-16T16:10:46;37.60;;;13.52;;
70675;SDS011;59069;52.242;20.900;2022-12-16T16:13:30;41.45;;;14.68;;
70675;SDS011;59069;52.242;20.900;2022-12-16T16:16:14;41.80;;;13.57;;
70675;SDS011;59069;52.242;20.900;2022-12-16T16:18:58;49.10;;;15.40;;
70675;SDS011;59069;52.242;20.900;2022-12-16T16:21:43;44.33;;;14.13;;
70675;SDS011;59069;52.242;20.900;2022-12-16T16:24:27;41.95;;;13.93;;
70675;SDS011;59069;52.242;20.900;2022-12-16T16:27:11;42.75;;;14.82;;
70675;SDS011;59069;52.242;20.900;2022-12-16T16:29:57;41.15;;;14.65;;
70675;SDS011;59069;52.242;20.900;2022-12-16T16:32:42;39.20;;;14.63;;
70675;SDS011;59069;52.242;20.900;2022-12-16T16:35:27;52.25;;;15.73;;
70675;SDS011;59069;52.242;20.900;2022-12-16T16:38:12;42.00;;;15.07;;
70675;SDS011;59069;52.242;20.900;2022-12-16T16:40:56;45.25;;;14.93;;
70675;SDS011;59069;52.242;20.900;2022-12-16T16:43:40;46.97;;;14.85;;
70675;SDS011;59069;52.242;20.900;2022-12-16T16:46:35;40.83;;;14.00;;
70675;SDS011;59069;52.242;20.900;2022-12-16T16:49:31;40.92;;;13.80;;
70675;SDS011;59069;52.242;20.900;2022-12-16T16:52:19;24.33;;;8.40;;
70675;SDS011;59069;52.242;20.900;2022-12-16T16:55:04;52.85;;;15.20;;
70675;SDS011;59069;52.242;20.900;2022-12-16T16:57:49;45.85;;;14.05;;
70675;SDS011;59069;52.242;20.900;2022-12-16T17:00:33;41.37;;;14.77;;
70675;SDS011;59069;52.242;20.900;2022-12-16T17:03:31;44.65;;;14.50;;
70675;SDS011;59069;52.242;20.900;2022-12-16T17:06:15;43.72;;;14.77;;
70675;SDS011;59069;52.242;20.900;2022-12-16T17:08:59;40.40;;;14.43;;
70675;SDS011;59069;52.242;20.900;2022-12-16T17:11:43;43.00;;;14.40;;
70675;SDS011;59069;52.242;20.900;2022-12-16T17:14:27;45.07;;;14.80;;
70675;SDS011;59069;52.242;20.900;2022-12-16T17:17:11;45.83;;;14.82;;
70675;SDS011;59069;52.242;20.900;2022-12-16T17:19:55;46.40;;;15.88;;
70675;SDS011;59069;52.242;20.900;2022-12-16T17:22:39;45.08;;;14.85;;
70675;SDS011;59069;52.242;20.900;2022-12-16T17:25:22;47.38;;;15.10;;
70675;SDS011;59069;52.242;20.900;2022-12-16T17:28:08;42.30;;;14.77;;
70675;SDS011;59069;52.242;20.900;2022-12-16T17:30:52;42.78;;;13.90;;
70675;SDS011;59069;52.242;20.900;2022-12-16T17:33:37;47.15;;;14.57;;
70675;SDS011;59069;52.242;20.900;2022-12-16T17:36:20;40.88;;;14.05;;
70675;SDS011;59069;52.242;20.900;2022-12-16T17:39:05;36.85;;;12.90;;
70675;SDS011;59069;52.242;20.900;2022-12-16T17:41:49;46.77;;;15.00;;
70675;SDS011;59069;52.242;20.900;2022-12-16T17:44:33;41.40;;;13.80;;
70675;SDS011;59069;52.242;20.900;2022-12-16T17:47:17;45.08;;;14.00;;
70675;SDS011;59069;52.242;20.900;2022-12-16T17:50:01;42.20;;;13.93;;
70675;SDS011;59069;52.242;20.900;2022-12-16T17:52:46;42.10;;;13.80;;
